Reklama
Líbí se Vám tento web? Budeme velmi rádi, pokud přidáte hodnocení +1

Seznam meteostanic a jejich METAR

Vyhledat místa podle abecedy:
A B C D E F G H I J K L M N O P Q R S T U V W X Y Z

Filtrovat:

ID stanice:
a/nebo
Název místa (fulltext):
 
Místo (ID)Naposledy načteno 
Aalborg (EKYT) 20.06.2018 11:50 UTC Zobrazit METAR
EKYT 201150Z 24019KT 5000 -DZ BKN006 OVC026 18/16 Q1010
Aarhus (EKAH) 11.06.2018 05:50 UTC Zobrazit METAR
EKAH 110550Z 26013KT 9999 BKN025 14/11 Q1008
Abu Dhabi (OMAA) 21.06.2018 02:00 UTC Zobrazit METAR
OMAA 210200Z VRB02KT 5000 HZ BKN007 30/27 Q1001 TEMPO 3000
Abuja (DNAA) 21.06.2018 00:00 UTC Zobrazit METAR
DNAA 210000Z 11004KT 9999 BKN007 22/20 Q1016 NOSIG
Accra (DGAA) 21.06.2018 02:00 UTC Zobrazit METAR
DGAA 210200Z 24006KT 210V270 CAVOK 25/23 Q1014 NOSIG
Addis Abeba (HAAB) 18.06.2018 21:00 UTC Zobrazit METAR
HAAB 182100Z VRB01KT 9999 BKN025 16/12 Q1025
Agana (PGUM) 21.06.2018 01:54 UTC Zobrazit METAR
PGUM 210154Z 09014KT 10SM BKN020 BKN028 BKN038 31/26 A2994 RMK AO2 SLP131 T03110261
Ahe Island (NTHE) Zatím nenačteno  
Akureyri (BIAR) 21.06.2018 02:00 UTC Zobrazit METAR
BIAR 210200Z 17005KT CAVOK 02/00 Q1020
Almaty (UAAA) Zatím nenačteno  
Amman (OJAM) 21.06.2018 02:00 UTC Zobrazit METAR
OJAM 210200Z 34003KT 5000 HZ FEW030 18/13 Q1017 NOSIG
Amsterdam (EHAM) 21.06.2018 01:55 UTC Zobrazit METAR
EHAM 210155Z 28007KT 9999 FEW007 BKN008 16/15 Q1015 BECMG SCT008
Antananarivo (FMMI) 21.06.2018 02:00 UTC Zobrazit METAR
FMMI 210200Z 13005KT 9999 SCT020 13/12 Q1025 NOSIG
Antwerp (EBAW) 21.06.2018 01:50 UTC Zobrazit METAR
EBAW 210150Z AUTO 27009KT 240V300 9999 // OVC012/// 17/15 Q1017
Apia (NSFA) 21.06.2018 02:00 UTC Zobrazit METAR
NSFA 210200Z 28010KT 9999 SCT020 SCT045 BKN140 28/24 Q1011
Aruba I (TNCA) 21.06.2018 02:00 UTC Zobrazit METAR
TNCA 210200Z 08016KT 9999 FEW018 27/24 Q1013 NOSIG
Ascension I. (FHAW) 15.06.2018 15:50 UTC Zobrazit METAR
FHAW 151550Z 14015KT 9999 FEW025 27/20 Q1016 BLU NOSIG
Ashgabat (UTAA) 21.06.2018 02:00 UTC Zobrazit METAR
UTAA 210200Z 16002KT 9999 FEW100 25/08 Q1011 R88/CLRD70 NOSIG
Asmara (HHAS) 03.02.2015 17:00 UTC Zobrazit METAR
HHAS 031700Z 27004KT CAVOK 15/06 Q1028 NOSIG
Astana (UACC) Zatím nenačteno  
Astrakhan (URWA) Zatím nenačteno  
Asuncion (SGAS) 21.06.2018 02:00 UTC Zobrazit METAR
SGAS 210200Z 07004KT CAVOK 21/17 Q1015
Athens (LGAV) 21.06.2018 01:50 UTC Zobrazit METAR
LGAV 210150Z VRB02KT CAVOK 24/11 Q1015 NOSIG
Reklama

Počasí na Váš email

Emaily jsou bez reklamy a bez spamu



Odhlásit newsletter

Reklama


Lunární kalendář

  • 28.06.
  • 06.07.
  • 13.07.
  • 19.07.



Slunečno.cz na Google+

Reklama


Reklama
Povinné ručení
Reklama




Reklama